createdAt,value
2018-08-19T00:00:47.302Z,22.80
2018-08-19T00:03:14.953Z,22.70
2018-08-19T00:05:42.519Z,22.70
2018-08-19T00:08:10.026Z,22.70
2018-08-19T00:11:11.527Z,22.70
2018-08-19T00:13:39.436Z,22.70
2018-08-19T00:16:07.938Z,22.70
2018-08-19T00:18:35.809Z,22.70
2018-08-19T00:21:06.998Z,22.70
2018-08-19T00:23:40.405Z,22.60
2018-08-19T00:26:07.847Z,22.60
2018-08-19T00:28:35.289Z,22.60
2018-08-19T00:31:04.706Z,22.60
2018-08-19T00:33:32.425Z,22.60
2018-08-19T00:36:00.016Z,22.60
2018-08-19T00:38:27.573Z,22.60
2018-08-19T00:40:55.158Z,22.60
2018-08-19T00:43:22.555Z,22.60
2018-08-19T00:45:50.019Z,22.50
2018-08-19T00:48:17.549Z,22.50
2018-08-19T00:50:45.018Z,22.50
2018-08-19T00:53:12.442Z,22.50
2018-08-19T00:55:45.742Z,22.50
2018-08-19T00:58:18.134Z,22.40
2018-08-19T01:00:45.679Z,22.50
2018-08-19T01:03:13.458Z,22.40
2018-08-19T01:05:40.913Z,22.40
2018-08-19T01:08:10.576Z,22.40
2018-08-19T01:10:38.230Z,22.40
2018-08-19T01:13:05.825Z,22.40
2018-08-19T01:15:33.324Z,22.40
2018-08-19T01:18:00.936Z,22.40
2018-08-19T01:20:28.395Z,22.30
2018-08-19T01:22:55.866Z,22.30
2018-08-19T01:25:23.383Z,22.30
2018-08-19T01:27:51.793Z,22.30
2018-08-19T01:30:21.485Z,22.30
2018-08-19T01:32:49.198Z,22.30
2018-08-19T01:35:17.156Z,22.30
2018-08-19T01:37:44.604Z,22.30
2018-08-19T01:40:19.614Z,22.30
2018-08-19T01:42:47.265Z,22.30
2018-08-19T01:45:14.838Z,22.20
2018-08-19T01:47:42.401Z,22.20
2018-08-19T01:50:12.977Z,22.30
2018-08-19T01:52:40.882Z,22.20
2018-08-19T01:55:08.861Z,22.20
2018-08-19T01:57:42.200Z,22.20
2018-08-19T02:00:10.666Z,22.20
2018-08-19T02:02:55.058Z,22.20
2018-08-19T02:05:23.001Z,22.20
2018-08-19T02:07:54.289Z,22.10
2018-08-19T02:10:22.752Z,22.10
2018-08-19T02:12:51.905Z,22.10
2018-08-19T02:15:20.417Z,22.10
2018-08-19T02:17:53.037Z,22.10
2018-08-19T02:20:24.232Z,22.10
2018-08-19T02:22:59.669Z,22.10
2018-08-19T02:25:35.946Z,22.10
2018-08-19T02:28:04.863Z,22.00
2018-08-19T02:30:32.814Z,22.00
2018-08-19T02:33:00.282Z,22.00
2018-08-19T02:35:27.816Z,22.00
2018-08-19T02:37:55.299Z,22.00
2018-08-19T02:40:31.734Z,22.00
2018-08-19T02:42:59.256Z,22.00
2018-08-19T02:45:26.780Z,21.90
2018-08-19T02:47:54.269Z,21.90
2018-08-19T02:50:21.694Z,21.90
2018-08-19T02:52:49.138Z,21.80
2018-08-19T02:55:16.591Z,21.90
2018-08-19T02:57:43.990Z,21.90
2018-08-19T03:00:12.041Z,21.80
2018-08-19T03:02:40.670Z,21.80
2018-08-19T03:05:11.165Z,21.70
2018-08-19T03:07:38.650Z,21.70
2018-08-19T03:10:08.567Z,21.80
2018-08-19T03:12:36.249Z,21.80
2018-08-19T03:15:05.277Z,21.70
2018-08-19T03:17:32.786Z,21.70
2018-08-19T03:20:00.653Z,21.70
2018-08-19T03:22:28.963Z,21.70
2018-08-19T03:24:58.858Z,21.70
2018-08-19T03:27:26.304Z,21.30
2018-08-19T03:30:00.088Z,21.70
2018-08-19T03:32:27.522Z,21.60
2018-08-19T03:35:18.768Z,21.60
2018-08-19T03:37:46.672Z,21.60
2018-08-19T03:40:14.290Z,21.60
2018-08-19T03:42:41.806Z,21.60
2018-08-19T03:45:15.698Z,21.60
2018-08-19T03:47:43.151Z,21.60
2018-08-19T03:50:16.375Z,21.60
2018-08-19T03:52:44.155Z,21.60
2018-08-19T03:55:31.376Z,21.50
2018-08-19T03:58:00.743Z,21.60
2018-08-19T04:00:31.097Z,21.60
2018-08-19T04:02:58.530Z,21.50
2018-08-19T04:05:39.181Z,21.60
2018-08-19T04:08:07.890Z,21.50
2018-08-19T04:10:35.638Z,21.50
2018-08-19T04:13:08.653Z,21.50
2018-08-19T04:15:36.154Z,21.50
2018-08-19T04:18:04.013Z,21.50
2018-08-19T04:20:31.562Z,21.50
2018-08-19T04:22:58.944Z,21.50
2018-08-19T04:25:32.129Z,21.50
2018-08-19T04:27:59.663Z,21.40
2018-08-19T04:30:27.063Z,21.40
2018-08-19T04:32:54.526Z,21.40
2018-08-19T04:35:22.023Z,21.40
2018-08-19T04:37:49.462Z,21.40
2018-08-19T04:40:17.130Z,21.40
2018-08-19T04:42:44.680Z,21.40
2018-08-19T04:45:12.085Z,21.40
2018-08-19T04:47:39.499Z,21.40
2018-08-19T04:50:07.257Z,21.30
2018-08-19T04:52:35.205Z,21.30
2018-08-19T04:55:02.681Z,21.30
2018-08-19T04:57:30.226Z,21.30
2018-08-19T04:59:57.770Z,21.30
2018-08-19T05:02:25.348Z,21.30
2018-08-19T05:04:52.677Z,21.20
2018-08-19T05:07:20.285Z,21.20
2018-08-19T05:09:47.718Z,21.20
2018-08-19T05:12:15.170Z,21.20
2018-08-19T05:14:42.640Z,21.20
2018-08-19T05:17:10.121Z,21.20
2018-08-19T05:19:37.681Z,21.10
2018-08-19T05:22:11.133Z,21.10
2018-08-19T05:24:39.230Z,21.10
2018-08-19T05:27:07.882Z,21.10
2018-08-19T05:29:35.344Z,21.10
2018-08-19T05:32:03.063Z,21.10
2018-08-19T05:34:32.028Z,21.10
2018-08-19T05:36:59.687Z,21.10
2018-08-19T05:39:27.437Z,21.10
2018-08-19T05:42:04.846Z,21.10
2018-08-19T05:44:36.959Z,21.10
2018-08-19T05:47:12.987Z,21.10
2018-08-19T05:49:42.425Z,21.10
2018-08-19T05:52:14.546Z,21.10
2018-08-19T05:54:47.600Z,21.10
2018-08-19T05:57:16.422Z,21.10
2018-08-19T05:59:44.919Z,21.10
2018-08-19T06:02:12.494Z,21.10
2018-08-19T06:04:39.940Z,21.10
2018-08-19T06:07:07.472Z,21.10
2018-08-19T06:09:35.437Z,21.10
2018-08-19T06:12:03.946Z,21.10
2018-08-19T06:14:31.958Z,21.10
2018-08-19T06:17:00.799Z,21.10
2018-08-19T06:19:28.244Z,21.10
2018-08-19T06:21:55.756Z,21.10
2018-08-19T06:24:24.810Z,21.20
2018-08-19T06:26:52.205Z,21.20
2018-08-19T06:29:19.698Z,21.20
2018-08-19T06:31:47.553Z,21.20
2018-08-19T06:34:15.016Z,21.20
2018-08-19T06:36:42.531Z,21.20
2018-08-19T06:39:11.196Z,21.30
2018-08-19T06:41:38.762Z,21.30
2018-08-19T06:44:06.302Z,21.30
2018-08-19T06:46:33.974Z,21.30
2018-08-19T06:49:06.919Z,21.30
2018-08-19T06:51:34.392Z,21.30
2018-08-19T06:54:01.889Z,21.40
2018-08-19T06:56:29.393Z,21.40
2018-08-19T06:58:56.928Z,21.40
2018-08-19T07:01:24.326Z,21.40
2018-08-19T07:03:54.863Z,21.40
2018-08-19T07:06:22.291Z,21.40
2018-08-19T07:08:49.790Z,21.40
2018-08-19T07:11:17.293Z,21.50
2018-08-19T07:13:44.811Z,21.50
2018-08-19T07:16:12.320Z,21.50
2018-08-19T07:18:39.883Z,21.50
2018-08-19T07:21:07.371Z,21.50
2018-08-19T07:23:34.897Z,21.60
2018-08-19T07:26:02.366Z,21.60
2018-08-19T07:28:29.970Z,21.60
2018-08-19T07:30:57.382Z,21.60
2018-08-19T07:33:24.888Z,21.60
2018-08-19T07:35:52.342Z,21.60
2018-08-19T07:38:19.741Z,21.60
2018-08-19T07:40:47.243Z,21.60
2018-08-19T07:43:14.645Z,21.70
2018-08-19T07:45:42.114Z,21.70
2018-08-19T07:48:09.627Z,21.70
2018-08-19T07:50:37.059Z,21.70
2018-08-19T07:53:04.994Z,21.70
2018-08-19T07:55:32.487Z,21.70
2018-08-19T07:58:00.114Z,21.70
2018-08-19T08:00:33.352Z,21.70
2018-08-19T08:03:00.811Z,21.70
2018-08-19T08:05:37.915Z,21.70
2018-08-19T08:08:06.947Z,21.70
2018-08-19T08:10:34.382Z,21.70
2018-08-19T08:13:07.487Z,21.70
2018-08-19T08:15:39.563Z,21.40
2018-08-19T08:18:07.174Z,21.80
2018-08-19T08:20:34.677Z,21.80
2018-08-19T08:23:11.281Z,21.80
2018-08-19T08:25:38.755Z,21.80
2018-08-19T08:28:06.196Z,21.80
2018-08-19T08:30:33.811Z,21.90
2018-08-19T08:33:01.262Z,21.80
2018-08-19T08:35:28.782Z,21.80
2018-08-19T08:37:56.335Z,21.90
2018-08-19T08:40:23.828Z,21.90
2018-08-19T08:42:51.293Z,21.90
2018-08-19T08:45:24.670Z,21.90
2018-08-19T08:47:52.399Z,21.90
2018-08-19T08:50:19.861Z,21.90
2018-08-19T08:52:47.363Z,22.00
2018-08-19T08:55:14.850Z,22.00
2018-08-19T08:57:42.357Z,22.00
2018-08-19T09:00:11.246Z,22.00
2018-08-19T09:02:38.886Z,22.00
2018-08-19T09:05:09.647Z,22.00
2018-08-19T09:07:37.332Z,22.00
2018-08-19T09:10:04.841Z,22.00
2018-08-19T09:12:40.779Z,22.10
2018-08-19T09:15:08.244Z,22.00
2018-08-19T09:17:35.757Z,22.10
2018-08-19T09:20:04.051Z,22.10
2018-08-19T09:22:31.559Z,22.10
2018-08-19T09:24:59.098Z,22.00
2018-08-19T09:27:26.598Z,22.00
2018-08-19T09:29:54.082Z,22.00
2018-08-19T09:32:21.490Z,22.00
2018-08-19T09:34:49.093Z,22.00
2018-08-19T09:37:16.611Z,22.10
2018-08-19T09:39:44.078Z,22.10
2018-08-19T09:42:12.215Z,22.10
2018-08-19T09:44:40.834Z,22.10
2018-08-19T09:47:08.369Z,22.10
2018-08-19T09:49:36.045Z,22.10
2018-08-19T09:52:03.841Z,22.20
2018-08-19T09:54:34.359Z,22.20
2018-08-19T09:57:02.197Z,22.20
2018-08-19T09:59:29.711Z,22.20
2018-08-19T10:01:57.370Z,22.30
2018-08-19T10:04:25.451Z,22.20
2018-08-19T10:07:28.241Z,22.30
2018-08-19T10:09:55.778Z,22.30
2018-08-19T10:12:23.205Z,22.30
2018-08-19T10:14:50.644Z,22.30
2018-08-19T10:17:18.117Z,22.30
2018-08-19T10:19:45.654Z,22.40
2018-08-19T10:22:13.098Z,22.40
2018-08-19T10:24:40.705Z,22.40
2018-08-19T10:27:08.306Z,22.40
2018-08-19T10:29:35.730Z,22.40
2018-08-19T10:32:04.015Z,22.50
2018-08-19T10:34:33.577Z,22.50
2018-08-19T10:37:01.771Z,22.50
2018-08-19T10:39:29.201Z,22.50
2018-08-19T10:42:23.081Z,22.50
2018-08-19T10:44:51.755Z,22.60
2018-08-19T10:47:20.113Z,22.60
2018-08-19T10:49:48.570Z,22.60
2018-08-19T10:52:21.606Z,22.60
2018-08-19T10:54:49.070Z,22.60
2018-08-19T10:57:18.302Z,22.60
2018-08-19T10:59:46.121Z,22.60
2018-08-19T11:02:13.627Z,22.60
2018-08-19T11:04:41.222Z,22.60
2018-08-19T11:07:08.753Z,22.60
2018-08-19T11:09:47.763Z,22.60
2018-08-19T11:12:15.185Z,22.60
2018-08-19T11:14:42.615Z,22.60
2018-08-19T11:17:10.025Z,22.70
2018-08-19T11:19:38.027Z,22.70
2018-08-19T11:22:05.739Z,22.70
2018-08-19T11:24:36.219Z,22.70
2018-08-19T11:27:04.989Z,22.70
2018-08-19T11:29:35.594Z,22.80
2018-08-19T11:32:03.328Z,22.80
2018-08-19T11:34:31.133Z,22.80
2018-08-19T11:36:58.821Z,22.80
2018-08-19T11:39:34.061Z,22.90
2018-08-19T11:42:01.784Z,22.90
2018-08-19T11:44:29.522Z,22.90
2018-08-19T11:46:57.291Z,22.90
2018-08-19T11:49:24.747Z,22.90
2018-08-19T11:51:55.220Z,22.90
2018-08-19T11:54:23.597Z,22.90
2018-08-19T11:56:57.782Z,23.00
2018-08-19T11:59:31.154Z,23.00
2018-08-19T12:01:58.850Z,23.00
2018-08-19T12:04:26.432Z,23.00
2018-08-19T12:06:53.890Z,23.10
2018-08-19T12:09:21.421Z,23.10
2018-08-19T12:11:48.931Z,23.10
2018-08-19T12:14:16.367Z,23.10
2018-08-19T12:16:50.212Z,23.20
2018-08-19T12:19:18.630Z,23.20
2018-08-19T12:21:53.624Z,23.20
2018-08-19T12:24:32.023Z,23.30
2018-08-19T12:27:01.759Z,23.30
2018-08-19T12:29:30.385Z,23.30
2018-08-19T12:32:08.051Z,23.30
2018-08-19T12:34:38.024Z,23.40
2018-08-19T12:37:06.550Z,23.40
2018-08-19T12:39:34.076Z,23.50
2018-08-19T12:42:02.676Z,23.50
2018-08-19T12:44:30.351Z,23.50
2018-08-19T12:47:07.901Z,23.50
2018-08-19T12:49:37.750Z,23.60
2018-08-19T12:52:05.844Z,23.60
2018-08-19T12:54:33.528Z,23.60
2018-08-19T12:57:01.998Z,23.60
2018-08-19T12:59:29.580Z,23.60
2018-08-19T13:01:56.997Z,23.70
2018-08-19T13:04:24.497Z,23.70
2018-08-19T13:06:58.840Z,23.80
2018-08-19T13:09:27.035Z,23.80
2018-08-19T13:11:54.712Z,23.90
2018-08-19T13:14:22.250Z,23.90
2018-08-19T13:16:49.707Z,24.00
2018-08-19T13:19:17.230Z,24.00
2018-08-19T13:21:44.747Z,24.00
2018-08-19T13:24:12.394Z,24.00
2018-08-19T13:26:39.818Z,24.10
2018-08-19T13:29:07.276Z,24.10
2018-08-19T13:31:34.762Z,23.80
2018-08-19T13:34:03.416Z,24.20
2018-08-19T13:36:31.534Z,24.20
2018-08-19T13:38:59.023Z,24.30
2018-08-19T13:41:26.611Z,24.30
2018-08-19T13:43:54.122Z,24.30
2018-08-19T13:46:21.579Z,24.40
2018-08-19T13:48:49.077Z,24.40
2018-08-19T13:51:16.526Z,24.50
2018-08-19T13:53:44.030Z,24.50
2018-08-19T13:56:11.483Z,24.50
2018-08-19T13:58:39.125Z,24.60
2018-08-19T14:01:06.823Z,24.60
2018-08-19T14:03:34.273Z,24.60
2018-08-19T14:06:01.808Z,24.60
2018-08-19T14:08:29.287Z,24.70
2018-08-19T14:10:56.763Z,24.70
2018-08-19T14:13:24.210Z,24.80
2018-08-19T14:15:51.654Z,24.80
2018-08-19T14:18:19.226Z,24.80
2018-08-19T14:20:46.677Z,24.80
2018-08-19T14:23:14.226Z,24.90
2018-08-19T14:25:41.672Z,24.90
2018-08-19T14:28:09.162Z,24.90
2018-08-19T14:30:36.678Z,25.00
2018-08-19T14:33:04.139Z,25.00
2018-08-19T14:35:31.581Z,25.00
2018-08-19T14:37:59.059Z,25.10
2018-08-19T14:40:26.653Z,25.10
2018-08-19T14:42:54.074Z,25.10
2018-08-19T14:45:21.530Z,25.10
2018-08-19T14:47:48.920Z,25.20
2018-08-19T14:50:18.173Z,25.30
2018-08-19T14:52:45.657Z,25.30
2018-08-19T14:55:13.130Z,25.40
2018-08-19T14:57:40.707Z,25.40
2018-08-19T15:00:10.539Z,25.40
2018-08-19T15:02:38.295Z,25.40
2018-08-19T15:05:05.813Z,25.50
2018-08-19T15:07:33.357Z,25.50
2018-08-19T15:10:00.952Z,25.50
2018-08-19T15:12:28.329Z,25.50
2018-08-19T15:14:58.210Z,25.60
2018-08-19T15:17:25.741Z,25.60
2018-08-19T15:19:53.739Z,25.70
2018-08-19T15:22:21.425Z,25.70
2018-08-19T15:24:49.258Z,25.80
2018-08-19T15:27:16.808Z,25.80
2018-08-19T15:29:46.339Z,25.80
2018-08-19T15:32:14.545Z,25.80
2018-08-19T15:34:41.905Z,25.90
2018-08-19T15:37:09.530Z,25.90
2018-08-19T15:39:37.135Z,25.90
2018-08-19T15:42:04.911Z,25.90
2018-08-19T15:44:32.451Z,26.00
2018-08-19T15:47:00.133Z,26.10
2018-08-19T15:49:27.905Z,26.10
2018-08-19T15:51:55.405Z,26.20
2018-08-19T15:54:22.833Z,26.20
2018-08-19T15:56:50.395Z,26.30
2018-08-19T15:59:17.870Z,26.30
2018-08-19T16:01:45.377Z,26.50
2018-08-19T16:04:15.782Z,26.70
2018-08-19T16:06:44.757Z,26.80
2018-08-19T16:09:13.981Z,26.90
2018-08-19T16:11:42.783Z,27.00
2018-08-19T16:14:17.406Z,27.10
2018-08-19T16:16:45.609Z,27.10
2018-08-19T16:19:13.098Z,27.10
2018-08-19T16:21:41.737Z,27.10
2018-08-19T16:24:09.208Z,27.10
2018-08-19T16:26:37.423Z,27.00
2018-08-19T16:29:05.022Z,27.00
2018-08-19T16:31:32.727Z,27.00
2018-08-19T16:34:00.388Z,26.90
2018-08-19T16:36:27.887Z,26.90
2018-08-19T16:38:55.805Z,26.80
2018-08-19T16:41:23.809Z,26.80
2018-08-19T16:43:51.423Z,26.80
2018-08-19T16:46:19.191Z,26.70
2018-08-19T16:48:46.640Z,26.80
2018-08-19T16:51:14.295Z,26.80
2018-08-19T16:53:41.894Z,26.80
2018-08-19T16:56:09.531Z,26.70
2018-08-19T16:58:37.004Z,26.70
2018-08-19T17:01:04.779Z,26.70
2018-08-19T17:03:35.549Z,26.70
2018-08-19T17:06:04.680Z,26.70
2018-08-19T17:08:32.127Z,26.70
2018-08-19T17:10:59.525Z,26.60
2018-08-19T17:13:26.998Z,26.60
2018-08-19T17:15:54.441Z,26.50
2018-08-19T17:18:22.190Z,26.50
2018-08-19T17:20:49.646Z,26.50
2018-08-19T17:23:20.765Z,26.50
2018-08-19T17:25:48.361Z,26.50
2018-08-19T17:28:21.190Z,26.50
2018-08-19T17:30:50.310Z,26.50
2018-08-19T17:33:17.897Z,26.50
2018-08-19T17:35:47.335Z,26.50
2018-08-19T17:38:16.193Z,26.40
2018-08-19T17:40:43.663Z,26.40
2018-08-19T17:43:11.335Z,26.40
2018-08-19T17:45:38.841Z,26.40
2018-08-19T17:48:06.509Z,26.30
2018-08-19T17:50:37.110Z,26.20
2018-08-19T17:53:05.122Z,26.20
2018-08-19T17:55:32.802Z,26.10
2018-08-19T17:58:00.531Z,26.10
2018-08-19T18:00:28.261Z,26.10
2018-08-19T18:02:55.762Z,26.00
2018-08-19T18:05:23.575Z,25.90
2018-08-19T18:07:52.951Z,25.90
2018-08-19T18:10:20.750Z,25.90
2018-08-19T18:12:48.674Z,25.80
2018-08-19T18:15:16.427Z,25.80
2018-08-19T18:17:51.864Z,25.80
2018-08-19T18:20:23.210Z,25.80
2018-08-19T18:22:51.960Z,25.70
2018-08-19T18:25:19.766Z,25.70
2018-08-19T18:27:47.677Z,25.70
2018-08-19T18:30:19.028Z,25.70
2018-08-19T18:32:46.748Z,25.70
2018-08-19T18:35:14.319Z,25.60
2018-08-19T18:37:42.216Z,25.60
2018-08-19T18:40:11.968Z,25.60
2018-08-19T18:42:40.677Z,25.50
2018-08-19T18:45:09.357Z,25.50
2018-08-19T18:47:46.478Z,25.50
2018-08-19T18:50:14.714Z,25.50
2018-08-19T18:52:42.464Z,25.40
2018-08-19T18:55:10.000Z,25.40
2018-08-19T18:57:42.269Z,25.40
2018-08-19T19:00:10.705Z,25.40
2018-08-19T19:02:41.597Z,25.40
2018-08-19T19:05:45.012Z,25.30
2018-08-19T19:08:16.336Z,25.30
2018-08-19T19:11:03.464Z,25.30
2018-08-19T19:13:30.923Z,25.30
2018-08-19T19:15:58.347Z,25.30
2018-08-19T19:18:25.912Z,25.20
2018-08-19T19:20:58.244Z,25.20
2018-08-19T19:23:30.224Z,25.10
2018-08-19T19:25:58.473Z,25.10
2018-08-19T19:28:26.060Z,25.00
2018-08-19T19:30:58.967Z,25.10
2018-08-19T19:33:26.413Z,25.10
2018-08-19T19:35:53.933Z,25.10
2018-08-19T19:38:21.567Z,25.10
2018-08-19T19:40:49.622Z,25.10
2018-08-19T19:43:17.289Z,25.00
2018-08-19T19:45:50.309Z,25.00
2018-08-19T19:48:18.043Z,25.00
2018-08-19T19:50:45.477Z,25.00
2018-08-19T19:53:12.878Z,25.00
2018-08-19T19:55:40.363Z,25.00
2018-08-19T19:58:07.977Z,24.90
2018-08-19T20:00:50.269Z,24.90
2018-08-19T20:03:18.042Z,24.90
2018-08-19T20:05:45.638Z,24.80
2018-08-19T20:08:13.389Z,24.80
2018-08-19T20:10:40.907Z,24.80
2018-08-19T20:13:08.408Z,24.80
2018-08-19T20:15:35.908Z,24.70
2018-08-19T20:18:03.823Z,24.70
2018-08-19T20:20:31.453Z,24.70
2018-08-19T20:22:58.970Z,24.60
2018-08-19T20:25:26.519Z,24.60
2018-08-19T20:27:59.657Z,24.60
2018-08-19T20:30:27.165Z,24.60
2018-08-19T20:32:54.856Z,24.60
2018-08-19T20:35:23.038Z,24.60
2018-08-19T20:37:51.211Z,24.60
2018-08-19T20:40:18.800Z,24.50
2018-08-19T20:42:46.201Z,24.60
2018-08-19T20:45:13.682Z,24.60
2018-08-19T20:47:41.270Z,24.50
2018-08-19T20:50:08.781Z,24.60
2018-08-19T20:52:48.513Z,24.50
2018-08-19T20:55:16.085Z,24.60
2018-08-19T20:57:43.912Z,24.50
2018-08-19T21:00:11.610Z,24.60
2018-08-19T21:02:39.109Z,24.50
2018-08-19T21:05:06.739Z,24.50
2018-08-19T21:07:34.269Z,24.50
2018-08-19T21:10:01.747Z,24.50
2018-08-19T21:12:29.301Z,24.50
2018-08-19T21:14:56.735Z,24.50
2018-08-19T21:17:24.430Z,24.50
2018-08-19T21:19:51.925Z,24.50
2018-08-19T21:22:19.476Z,24.50
2018-08-19T21:24:46.845Z,24.50
2018-08-19T21:27:14.323Z,24.50
2018-08-19T21:29:41.937Z,24.50
2018-08-19T21:32:09.371Z,24.50
2018-08-19T21:34:37.120Z,24.50
2018-08-19T21:37:04.767Z,24.50
2018-08-19T21:39:32.247Z,24.50
2018-08-19T21:41:59.718Z,24.50
2018-08-19T21:44:27.161Z,24.50
2018-08-19T21:46:54.562Z,24.50
2018-08-19T21:49:22.038Z,24.50
2018-08-19T21:51:49.520Z,24.50
2018-08-19T21:54:17.397Z,24.40
2018-08-19T21:56:44.825Z,24.70
2018-08-19T21:59:18.957Z,24.50
2018-08-19T22:01:51.077Z,24.50
2018-08-19T22:04:19.782Z,24.50
2018-08-19T22:06:47.254Z,24.40
2018-08-19T22:09:26.329Z,24.40
2018-08-19T22:11:55.280Z,24.50
2018-08-19T22:14:22.738Z,24.40
2018-08-19T22:16:54.774Z,24.40
2018-08-19T22:19:22.493Z,24.40
2018-08-19T22:21:49.945Z,24.40
2018-08-19T22:24:17.406Z,24.40
2018-08-19T22:26:44.883Z,24.40
2018-08-19T22:29:14.899Z,24.40
2018-08-19T22:31:42.394Z,24.40
2018-08-19T22:34:09.813Z,24.40
2018-08-19T22:36:37.498Z,24.40
2018-08-19T22:39:08.047Z,24.40
2018-08-19T22:41:35.534Z,24.40
2018-08-19T22:44:03.142Z,24.40
2018-08-19T22:46:31.092Z,24.40
2018-08-19T22:48:58.801Z,24.40
2018-08-19T22:51:30.695Z,24.40
2018-08-19T22:53:58.206Z,24.40
2018-08-19T22:56:25.660Z,24.40
2018-08-19T22:58:53.133Z,24.40
2018-08-19T23:01:20.820Z,24.30
2018-08-19T23:03:52.870Z,24.40
2018-08-19T23:06:20.309Z,24.40
2018-08-19T23:08:47.675Z,24.40
2018-08-19T23:11:15.181Z,24.40
2018-08-19T23:13:54.024Z,24.30
2018-08-19T23:16:21.529Z,24.30
2018-08-19T23:18:48.924Z,24.40
2018-08-19T23:21:16.398Z,24.30
2018-08-19T23:23:43.813Z,24.30
2018-08-19T23:26:11.668Z,24.30
2018-08-19T23:28:39.079Z,24.30
2018-08-19T23:31:06.482Z,24.30
2018-08-19T23:33:33.914Z,24.30
2018-08-19T23:36:01.362Z,24.30
2018-08-19T23:38:28.828Z,24.30
2018-08-19T23:40:56.359Z,24.30
2018-08-19T23:43:23.799Z,24.20
2018-08-19T23:45:51.389Z,24.20
2018-08-19T23:48:18.818Z,24.10
2018-08-19T23:50:46.258Z,24.10
2018-08-19T23:53:13.873Z,24.10
2018-08-19T23:55:41.317Z,24.00
2018-08-19T23:58:08.734Z,24.00
